createdAt,value
2024-03-22T01:55:49.933Z,9.75
2024-03-22T01:58:20.978Z,9.73
2024-03-22T02:00:52.726Z,9.77
2024-03-22T02:03:23.357Z,9.78
2024-03-22T02:05:55.108Z,9.82
2024-03-22T02:08:25.950Z,9.86
2024-03-22T02:10:57.505Z,9.89
2024-03-22T02:13:28.150Z,9.94
2024-03-22T02:15:59.690Z,9.96
2024-03-22T02:18:30.329Z,9.97
2024-03-22T02:21:01.773Z,9.97
2024-03-22T02:23:42.020Z,9.95
2024-03-22T02:26:13.887Z,9.93
2024-03-22T02:28:44.212Z,9.90
2024-03-22T02:31:16.317Z,9.87
2024-03-22T02:33:46.815Z,9.83
2024-03-22T02:36:18.844Z,9.78
2024-03-22T02:38:49.193Z,9.75
2024-03-22T02:41:21.367Z,9.68
2024-03-22T02:43:51.792Z,9.61
2024-03-22T02:46:23.245Z,9.55
2024-03-22T02:48:53.976Z,9.52
2024-03-22T02:51:25.732Z,9.50
2024-03-22T02:53:56.543Z,9.48
2024-03-22T02:56:28.527Z,9.49
2024-03-22T02:58:58.962Z,9.47
2024-03-22T03:01:31.031Z,9.47
2024-03-22T03:04:01.465Z,9.46
2024-03-22T03:06:33.106Z,9.46
2024-03-22T03:09:05.935Z,9.47
2024-03-22T03:11:40.432Z,9.52
2024-03-22T03:14:10.739Z,9.54
2024-03-22T03:16:42.590Z,9.54
2024-03-22T03:19:12.809Z,9.54
2024-03-22T03:21:44.778Z,9.53
2024-03-22T03:24:15.105Z,9.53
2024-03-22T03:26:47.267Z,9.52
2024-03-22T03:29:17.486Z,9.51
2024-03-22T03:31:50.306Z,9.49
2024-03-22T03:34:21.825Z,9.47
2024-03-22T03:36:53.475Z,9.46
2024-03-22T03:39:24.827Z,9.46
2024-03-22T03:41:56.581Z,9.46
2024-03-22T03:44:27.313Z,9.46
2024-03-22T03:46:59.073Z,9.43
2024-03-22T03:49:29.711Z,9.39
2024-03-22T03:52:01.252Z,9.38
2024-03-22T03:54:31.887Z,9.37
2024-03-22T03:57:03.750Z,9.35
2024-03-22T03:59:34.273Z,9.34
2024-03-22T04:02:06.319Z,9.36
2024-03-22T04:04:36.777Z,9.37
2024-03-22T04:07:08.523Z,9.35
2024-03-22T04:09:38.851Z,9.31
2024-03-22T04:12:11.099Z,9.30
2024-03-22T04:14:41.666Z,9.31
2024-03-22T04:17:13.715Z,9.32
2024-03-22T04:19:44.138Z,9.34
2024-03-22T04:22:16.011Z,9.35
2024-03-22T04:24:46.828Z,9.36
2024-03-22T04:27:18.403Z,9.35
2024-03-22T04:29:49.331Z,9.32
2024-03-22T04:32:21.407Z,9.26
2024-03-22T04:34:51.815Z,9.25
2024-03-22T04:37:23.714Z,9.25
2024-03-22T04:39:54.207Z,9.25
2024-03-22T04:42:25.971Z,9.23
2024-03-22T04:44:56.288Z,9.22
2024-03-22T04:47:28.283Z,9.24
2024-03-22T04:49:58.888Z,9.24
2024-03-22T04:52:30.439Z,9.24
2024-03-22T04:55:03.070Z,9.24
2024-03-22T04:57:34.564Z,9.23
2024-03-22T05:00:08.477Z,9.23
2024-03-22T05:02:41.492Z,9.22
2024-03-22T05:05:13.700Z,9.21
2024-03-22T05:07:45.280Z,9.20
2024-03-22T05:10:17.982Z,9.20
2024-03-22T05:12:50.230Z,9.19
2024-03-22T05:15:20.974Z,9.19
2024-03-22T05:17:53.033Z,9.20
2024-03-22T05:20:23.571Z,9.19
2024-03-22T05:22:55.899Z,9.20
2024-03-22T05:25:29.505Z,9.21
2024-03-22T05:28:02.276Z,9.21
2024-03-22T05:30:33.051Z,9.21
2024-03-22T05:33:05.109Z,9.24
2024-03-22T05:35:35.748Z,9.25
2024-03-22T05:38:07.499Z,9.24
2024-03-22T05:40:39.987Z,9.26
2024-03-22T05:43:11.941Z,9.30
2024-03-22T05:45:42.162Z,9.33
2024-03-22T05:48:14.221Z,9.35
2024-03-22T05:50:44.457Z,9.37
2024-03-22T05:53:16.217Z,9.39
2024-03-22T05:55:46.536Z,9.41
2024-03-22T05:58:19.213Z,9.44
2024-03-22T06:00:49.640Z,9.49
2024-03-22T06:03:21.700Z,9.52
2024-03-22T06:05:56.324Z,9.53
2024-03-22T06:08:28.407Z,9.53
2024-03-22T06:10:58.709Z,9.55
2024-03-22T06:13:33.080Z,9.60
2024-03-22T06:16:04.858Z,9.62
2024-03-22T06:18:36.759Z,9.66
2024-03-22T06:21:07.380Z,9.71
2024-03-22T06:23:39.443Z,9.76
2024-03-22T06:26:09.779Z,9.80
2024-03-22T06:28:41.643Z,9.81
2024-03-22T06:31:12.058Z,9.77
2024-03-22T06:33:43.896Z,9.74
2024-03-22T06:36:14.346Z,9.73
2024-03-22T06:38:45.996Z,9.67
2024-03-22T06:41:16.540Z,9.59
2024-03-22T06:43:48.286Z,9.56
2024-03-22T06:46:18.715Z,9.55
2024-03-22T06:48:50.591Z,9.57
2024-03-22T06:51:21.098Z,9.60
2024-03-22T06:53:53.558Z,9.61
2024-03-22T06:56:24.515Z,9.63
2024-03-22T06:58:56.685Z,9.69
2024-03-22T07:01:27.206Z,9.76
2024-03-22T07:03:58.872Z,9.78
2024-03-22T07:06:29.597Z,9.85
2024-03-22T07:09:01.258Z,9.94
2024-03-22T07:11:33.305Z,10.03
2024-03-22T07:14:04.877Z,10.06
2024-03-22T07:16:35.497Z,10.09
2024-03-22T07:19:07.268Z,10.11
2024-03-22T07:21:37.683Z,10.13
2024-03-22T07:24:09.251Z,10.18
2024-03-22T07:26:40.070Z,10.26
2024-03-22T07:29:11.534Z,10.33
2024-03-22T07:31:42.847Z,10.44
2024-03-22T07:34:14.554Z,10.56
2024-03-22T07:36:45.165Z,10.66
2024-03-22T07:39:16.914Z,10.78
2024-03-22T07:41:47.676Z,10.90
2024-03-22T07:44:20.953Z,11.06
2024-03-22T07:46:51.499Z,11.18
2024-03-22T07:49:23.143Z,11.29
2024-03-22T07:51:54.374Z,11.37
2024-03-22T07:54:25.947Z,11.44
2024-03-22T07:56:56.896Z,11.48
2024-03-22T07:59:28.717Z,11.53
2024-03-22T08:01:59.263Z,11.59
2024-03-22T08:04:31.400Z,11.68
2024-03-22T08:07:02.685Z,11.76
2024-03-22T08:09:35.052Z,11.89
2024-03-22T08:12:05.978Z,12.08
2024-03-22T08:14:38.045Z,12.40
2024-03-22T08:17:10.423Z,12.80
2024-03-22T08:19:42.621Z,13.14
2024-03-22T08:22:13.113Z,13.41
2024-03-22T08:24:44.975Z,13.60
2024-03-22T08:27:15.502Z,13.68
2024-03-22T08:29:48.819Z,13.72
2024-03-22T08:32:19.997Z,13.70
2024-03-22T08:34:51.763Z,13.68
2024-03-22T08:37:22.374Z,13.71
2024-03-22T08:39:54.080Z,13.75
2024-03-22T08:42:24.621Z,13.81
2024-03-22T08:44:56.496Z,13.86
2024-03-22T08:47:27.227Z,13.83
2024-03-22T08:49:59.428Z,13.80
2024-03-22T08:52:31.436Z,13.84
2024-03-22T08:55:05.792Z,13.91
2024-03-22T08:57:39.442Z,14.03
2024-03-22T09:00:14.029Z,14.16
2024-03-22T09:02:44.408Z,14.25
2024-03-22T09:05:16.678Z,14.34
2024-03-22T09:07:47.505Z,14.32
2024-03-22T09:10:20.893Z,14.27
2024-03-22T09:12:51.444Z,14.15
2024-03-22T09:15:23.411Z,14.07
2024-03-22T09:17:54.095Z,14.01
2024-03-22T09:20:25.800Z,13.97
2024-03-22T09:22:56.533Z,13.97
2024-03-22T09:25:28.956Z,14.00
2024-03-22T09:27:59.328Z,14.08
2024-03-22T09:30:38.630Z,14.24
2024-03-22T09:33:13.794Z,14.44
2024-03-22T09:35:45.931Z,14.60
2024-03-22T09:38:17.622Z,14.68
2024-03-22T09:40:48.051Z,14.76
2024-03-22T09:43:20.127Z,14.79
2024-03-22T09:45:53.406Z,14.83
2024-03-22T09:48:25.470Z,14.92
2024-03-22T09:50:56.511Z,15.22
2024-03-22T09:53:28.417Z,15.88
2024-03-22T09:55:59.413Z,16.71
2024-03-22T09:58:31.070Z,17.26
2024-03-22T10:01:01.796Z,17.67
2024-03-22T10:03:33.219Z,18.00
2024-03-22T10:06:04.043Z,18.17
2024-03-22T10:08:35.742Z,18.28
2024-03-22T10:11:06.275Z,18.23
2024-03-22T10:13:38.132Z,18.03
2024-03-22T10:16:08.822Z,17.65
2024-03-22T10:18:40.526Z,17.16
2024-03-22T10:21:11.155Z,16.91
2024-03-22T10:23:42.709Z,16.87
2024-03-22T10:26:13.164Z,16.90
2024-03-22T10:28:48.678Z,17.03
2024-03-22T10:31:22.131Z,17.22
2024-03-22T10:33:52.739Z,17.26
2024-03-22T10:36:24.904Z,17.12
2024-03-22T10:38:56.234Z,17.03
2024-03-22T10:41:28.174Z,16.97
2024-03-22T10:43:59.601Z,16.95
2024-03-22T10:46:32.113Z,16.98
2024-03-22T10:49:05.430Z,17.01
2024-03-22T10:51:37.471Z,17.06
2024-03-22T10:54:07.798Z,17.23
2024-03-22T10:56:39.747Z,17.45
2024-03-22T10:59:10.286Z,17.75
2024-03-22T11:01:46.863Z,18.11
2024-03-22T11:04:19.023Z,18.37
2024-03-22T11:06:52.728Z,18.80
2024-03-22T11:09:26.663Z,19.36
2024-03-22T11:12:01.668Z,19.77
2024-03-22T11:14:33.467Z,20.57
2024-03-22T11:17:04.464Z,21.45
2024-03-22T11:19:36.223Z,22.15
2024-03-22T11:22:09.575Z,22.63
2024-03-22T11:24:41.272Z,22.52
2024-03-22T11:27:15.320Z,22.31
2024-03-22T11:29:48.041Z,21.85
2024-03-22T11:32:18.595Z,21.44
2024-03-22T11:34:50.457Z,21.17
2024-03-22T11:37:20.669Z,20.92
2024-03-22T11:39:53.049Z,22.51
2024-03-22T11:42:23.476Z,24.69
2024-03-22T11:44:55.446Z,25.41
2024-03-22T11:47:25.968Z,24.79
2024-03-22T11:49:57.822Z,23.90
2024-03-22T11:52:28.356Z,23.08
2024-03-22T11:55:00.015Z,22.45
2024-03-22T11:57:30.742Z,22.06
2024-03-22T12:00:15.172Z,21.62
2024-03-22T12:02:54.127Z,21.28
2024-03-22T12:05:24.550Z,21.06
2024-03-22T12:07:56.510Z,20.66
2024-03-22T12:10:26.673Z,20.52
2024-03-22T12:12:58.692Z,20.56
2024-03-22T12:15:29.636Z,20.45
2024-03-22T12:18:01.315Z,20.43
2024-03-22T12:20:31.925Z,20.28
2024-03-22T12:23:04.210Z,19.99
2024-03-22T12:25:34.814Z,19.83
2024-03-22T12:28:07.188Z,19.83
2024-03-22T12:30:37.633Z,19.91
2024-03-22T12:33:11.737Z,20.05
2024-03-22T12:35:42.562Z,20.26
2024-03-22T12:38:15.044Z,20.71
2024-03-22T12:40:45.466Z,21.28
2024-03-22T12:43:18.457Z,21.38
2024-03-22T12:45:48.887Z,21.16
2024-03-22T12:48:20.645Z,20.67
2024-03-22T12:50:51.268Z,20.17
2024-03-22T12:53:23.028Z,19.76
2024-03-22T12:55:53.455Z,19.65
2024-03-22T12:58:25.213Z,19.93
2024-03-22T13:00:55.733Z,20.14
2024-03-22T13:03:28.511Z,20.38
2024-03-22T13:05:58.841Z,20.54
2024-03-22T13:08:30.604Z,20.37
2024-03-22T13:11:01.137Z,20.15
2024-03-22T13:13:32.897Z,19.83
2024-03-22T13:16:04.091Z,19.55
2024-03-22T13:18:35.998Z,19.23
2024-03-22T13:21:06.941Z,18.97
2024-03-22T13:23:39.210Z,18.72
2024-03-22T13:26:09.633Z,18.49
2024-03-22T13:28:43.358Z,18.33
2024-03-22T13:31:14.093Z,18.28
2024-03-22T13:33:45.644Z,18.32
2024-03-22T13:36:16.361Z,18.29
2024-03-22T13:38:47.703Z,18.08
2024-03-22T13:41:18.456Z,17.82
2024-03-22T13:43:49.892Z,17.64
2024-03-22T13:46:20.413Z,17.51
2024-03-22T13:48:51.872Z,17.50
2024-03-22T13:51:22.892Z,17.56
2024-03-22T13:53:54.360Z,17.67
2024-03-22T13:56:27.674Z,17.90
2024-03-22T13:58:59.740Z,18.04
2024-03-22T14:01:31.116Z,18.02
2024-03-22T14:04:04.394Z,17.85
2024-03-22T14:06:35.139Z,17.60
2024-03-22T14:09:09.222Z,17.45
2024-03-22T14:11:40.464Z,17.39
2024-03-22T14:14:15.276Z,17.35
2024-03-22T14:16:48.192Z,17.24
2024-03-22T14:19:20.273Z,17.09
2024-03-22T14:21:52.211Z,16.99
2024-03-22T14:24:22.620Z,16.95
2024-03-22T14:26:54.373Z,16.94
2024-03-22T14:29:25.114Z,16.98
2024-03-22T14:31:57.100Z,17.02
2024-03-22T14:34:27.711Z,16.98
2024-03-22T14:36:59.461Z,16.90
2024-03-22T14:39:30.406Z,16.76
2024-03-22T14:42:02.073Z,16.53
2024-03-22T14:44:32.810Z,16.29
2024-03-22T14:47:05.073Z,16.07
2024-03-22T14:49:36.412Z,15.89
2024-03-22T14:52:08.474Z,15.71
2024-03-22T14:54:39.004Z,15.57
2024-03-22T14:57:11.167Z,15.43
2024-03-22T14:59:41.590Z,15.35
2024-03-22T15:02:13.730Z,15.27
2024-03-22T15:04:44.824Z,15.23
2024-03-22T15:07:17.277Z,15.18
2024-03-22T15:09:47.801Z,15.14
2024-03-22T15:12:19.465Z,15.12
2024-03-22T15:14:54.468Z,15.04
2024-03-22T15:17:26.214Z,14.94
2024-03-22T15:19:57.193Z,14.84
2024-03-22T15:22:29.426Z,14.78
2024-03-22T15:25:00.711Z,14.71
2024-03-22T15:27:32.674Z,14.63
2024-03-22T15:30:03.098Z,14.59
2024-03-22T15:32:35.269Z,14.54
2024-03-22T15:35:06.211Z,14.47
2024-03-22T15:37:38.762Z,14.43
2024-03-22T15:40:12.285Z,14.42
2024-03-22T15:42:44.341Z,14.38
2024-03-22T15:45:14.870Z,14.32
2024-03-22T15:47:46.728Z,14.28
2024-03-22T15:50:17.325Z,14.22
2024-03-22T15:52:49.232Z,14.15
2024-03-22T15:55:19.763Z,14.10
2024-03-22T15:57:53.972Z,14.03
2024-03-22T16:00:24.588Z,13.96
2024-03-22T16:02:57.379Z,13.87
2024-03-22T16:05:27.706Z,13.81
2024-03-22T16:07:59.668Z,13.74
2024-03-22T16:10:30.000Z,13.68
2024-03-22T16:13:02.153Z,13.61
2024-03-22T16:15:32.496Z,13.54
2024-03-22T16:18:05.077Z,13.47
2024-03-22T16:20:35.380Z,13.40
2024-03-22T16:23:09.998Z,13.33
2024-03-22T16:25:43.690Z,13.26
2024-03-22T16:28:14.339Z,13.18
2024-03-22T16:30:45.814Z,13.11
2024-03-22T16:33:16.318Z,13.05
2024-03-22T16:35:48.194Z,12.99
2024-03-22T16:38:18.403Z,12.93
2024-03-22T16:40:50.370Z,12.88
2024-03-22T16:43:21.195Z,12.85
2024-03-22T16:45:52.853Z,12.82
2024-03-22T16:48:23.277Z,12.79
2024-03-22T16:50:55.648Z,12.75
2024-03-22T16:53:26.593Z,12.71
2024-03-22T16:55:58.465Z,12.68
2024-03-22T16:58:29.092Z,12.66
2024-03-22T17:01:09.550Z,12.65
2024-03-22T17:03:41.107Z,12.62
2024-03-22T17:06:18.277Z,12.60
2024-03-22T17:08:53.523Z,12.57
2024-03-22T17:11:25.095Z,12.54
2024-03-22T17:13:58.169Z,12.52
2024-03-22T17:16:28.689Z,12.49
2024-03-22T17:19:00.465Z,12.46
2024-03-22T17:21:30.980Z,12.43
2024-03-22T17:24:02.735Z,12.41
2024-03-22T17:26:33.266Z,12.39
2024-03-22T17:29:05.570Z,12.38
2024-03-22T17:31:39.686Z,12.35
2024-03-22T17:34:12.018Z,12.34
2024-03-22T17:36:42.645Z,12.33
2024-03-22T17:39:15.494Z,12.32
2024-03-22T17:41:45.971Z,12.32
2024-03-22T17:44:17.834Z,12.31
2024-03-22T17:46:48.243Z,12.31
2024-03-22T17:49:20.117Z,12.29
2024-03-22T17:51:50.557Z,12.25
2024-03-22T17:54:22.497Z,12.19
2024-03-22T17:56:52.818Z,12.15
2024-03-22T17:59:24.791Z,12.10
2024-03-22T18:01:56.340Z,12.04
2024-03-22T18:04:28.193Z,11.98
2024-03-22T18:07:02.010Z,11.93
2024-03-22T18:09:34.279Z,11.88
2024-03-22T18:12:05.867Z,11.84
2024-03-22T18:14:37.585Z,11.81
2024-03-22T18:17:08.420Z,11.80
2024-03-22T18:19:40.382Z,11.79
2024-03-22T18:22:10.824Z,11.81
2024-03-22T18:24:42.870Z,11.82
2024-03-22T18:27:13.317Z,11.83
2024-03-22T18:29:45.158Z,11.83
2024-03-22T18:32:15.591Z,11.83
2024-03-22T18:34:47.225Z,11.84
2024-03-22T18:37:20.037Z,11.85
2024-03-22T18:39:51.977Z,11.86
2024-03-22T18:42:22.476Z,11.87
2024-03-22T18:44:54.473Z,11.88
2024-03-22T18:47:25.819Z,11.88
2024-03-22T18:49:57.596Z,11.86
2024-03-22T18:52:28.111Z,11.85
2024-03-22T18:55:02.547Z,11.85
2024-03-22T18:57:36.502Z,11.84
2024-03-22T19:00:07.799Z,11.84
2024-03-22T19:02:41.357Z,11.84
2024-03-22T19:05:11.615Z,11.84
2024-03-22T19:07:43.389Z,11.83
2024-03-22T19:10:14.914Z,11.82
2024-03-22T19:12:46.981Z,11.81
2024-03-22T19:15:17.327Z,11.79
2024-03-22T19:17:49.275Z,11.77
2024-03-22T19:20:19.597Z,11.73
2024-03-22T19:22:51.561Z,11.71
2024-03-22T19:25:23.621Z,11.69
2024-03-22T19:27:55.492Z,11.66
2024-03-22T19:30:26.139Z,11.60
2024-03-22T19:32:57.870Z,11.56
2024-03-22T19:35:29.118Z,11.52
2024-03-22T19:38:01.292Z,11.47
2024-03-22T19:40:31.816Z,11.44
2024-03-22T19:43:04.904Z,11.43
2024-03-22T19:45:35.742Z,11.43
2024-03-22T19:48:07.930Z,11.42
2024-03-22T19:50:38.634Z,11.43
2024-03-22T19:53:10.202Z,11.44
2024-03-22T19:55:40.826Z,11.44
2024-03-22T19:58:12.580Z,11.43
2024-03-22T20:00:43.107Z,11.41
2024-03-22T20:03:15.416Z,11.39
2024-03-22T20:05:47.251Z,11.39
2024-03-22T20:08:20.445Z,11.37
2024-03-22T20:10:50.865Z,11.36
2024-03-22T20:13:22.523Z,11.35
2024-03-22T20:15:53.174Z,11.33
2024-03-22T20:18:26.444Z,11.32
2024-03-22T20:20:57.851Z,11.30
2024-03-22T20:23:29.740Z,11.28
2024-03-22T20:26:00.284Z,11.25
2024-03-22T20:28:31.827Z,11.25
2024-03-22T20:31:02.690Z,11.25
2024-03-22T20:33:34.417Z,11.26
2024-03-22T20:36:05.539Z,11.26
2024-03-22T20:38:37.237Z,11.27
2024-03-22T20:41:07.444Z,11.26
2024-03-22T20:43:38.991Z,11.25
2024-03-22T20:46:09.532Z,11.23
2024-03-22T20:48:40.976Z,11.22
2024-03-22T20:51:13.783Z,11.21
2024-03-22T20:53:45.427Z,11.18
2024-03-22T20:56:16.153Z,11.16
2024-03-22T20:58:47.710Z,11.14
2024-03-22T21:01:19.900Z,11.11
2024-03-22T21:03:51.423Z,11.09
2024-03-22T21:06:22.158Z,11.08
2024-03-22T21:08:53.813Z,11.07
2024-03-22T21:11:24.573Z,11.07
2024-03-22T21:13:56.303Z,11.07
2024-03-22T21:16:26.834Z,11.05
2024-03-22T21:18:58.690Z,11.03
2024-03-22T21:21:29.321Z,11.00
2024-03-22T21:24:01.077Z,10.96
2024-03-22T21:26:31.604Z,10.93
2024-03-22T21:29:03.362Z,10.91
2024-03-22T21:31:34.295Z,10.88
2024-03-22T21:34:06.072Z,10.86
2024-03-22T21:36:36.789Z,10.85
2024-03-22T21:39:12.254Z,10.84
2024-03-22T21:41:45.055Z,10.83
2024-03-22T21:44:15.451Z,10.82
2024-03-22T21:46:47.616Z,10.79
2024-03-22T21:49:18.036Z,10.75
2024-03-22T21:51:49.797Z,10.73
2024-03-22T21:54:21.751Z,10.72
2024-03-22T21:56:53.409Z,10.72
2024-03-22T21:59:23.943Z,10.74
2024-03-22T22:01:55.998Z,10.75
2024-03-22T22:04:26.430Z,10.76
2024-03-22T22:06:58.194Z,10.77
2024-03-22T22:09:28.938Z,10.78
2024-03-22T22:12:00.579Z,10.78
2024-03-22T22:14:31.310Z,10.77
2024-03-22T22:17:02.869Z,10.78
2024-03-22T22:19:33.390Z,10.78
2024-03-22T22:22:04.947Z,10.79
2024-03-22T22:24:35.580Z,10.79
2024-03-22T22:27:07.212Z,10.80
2024-03-22T22:29:38.280Z,10.80
2024-03-22T22:32:10.140Z,10.79
2024-03-22T22:34:40.459Z,10.76
2024-03-22T22:37:11.906Z,10.73
2024-03-22T22:39:42.445Z,10.70
2024-03-22T22:42:14.008Z,10.65
2024-03-22T22:44:44.664Z,10.59
2024-03-22T22:47:16.180Z,10.54
2024-03-22T22:49:46.702Z,10.51
2024-03-22T22:52:18.366Z,10.48
2024-03-22T22:54:49.090Z,10.45
2024-03-22T22:57:20.766Z,10.42
2024-03-22T22:59:51.482Z,10.37
2024-03-22T23:02:23.251Z,10.33
2024-03-22T23:04:53.669Z,10.28
2024-03-22T23:07:25.425Z,10.26
2024-03-22T23:09:55.950Z,10.23
2024-03-22T23:12:27.815Z,10.20
2024-03-22T23:14:58.653Z,10.17
2024-03-22T23:17:30.419Z,10.13
2024-03-22T23:20:00.844Z,10.10
2024-03-22T23:22:32.712Z,10.08
2024-03-22T23:25:03.854Z,10.06
2024-03-22T23:27:36.124Z,10.03
2024-03-22T23:30:06.783Z,10.01
2024-03-22T23:32:38.403Z,10.00
2024-03-22T23:35:08.814Z,10.00
2024-03-22T23:37:41.195Z,10.00
2024-03-22T23:40:11.621Z,9.99
2024-03-22T23:42:43.782Z,9.99
2024-03-22T23:45:14.336Z,9.99
2024-03-22T23:47:45.967Z,10.01
2024-03-22T23:50:16.413Z,10.04
2024-03-22T23:52:48.143Z,10.06
2024-03-22T23:55:18.990Z,10.07
2024-03-22T23:57:50.437Z,10.09
